sensor_id;sensor_type;location;lat;lon;timestamp;temperature;humidity
5870;DHT22;2961;47.702;9.410;2022-09-03T00:01:40;15.80;99.90
5870;DHT22;2961;47.702;9.410;2022-09-03T00:04:21;15.70;99.90
5870;DHT22;2961;47.702;9.410;2022-09-03T00:06:54;15.60;99.90
5870;DHT22;2961;47.702;9.410;2022-09-03T00:09:26;15.40;99.90
5870;DHT22;2961;47.702;9.410;2022-09-03T00:12:00;15.40;99.90
5870;DHT22;2961;47.702;9.410;2022-09-03T00:14:35;15.30;99.90
5870;DHT22;2961;47.702;9.410;2022-09-03T00:17:08;15.30;99.90
5870;DHT22;2961;47.702;9.410;2022-09-03T00:19:40;15.30;99.90
5870;DHT22;2961;47.702;9.410;2022-09-03T00:22:14;15.30;99.90
5870;DHT22;2961;47.702;9.410;2022-09-03T00:24:43;15.30;99.90
5870;DHT22;2961;47.702;9.410;2022-09-03T00:27:14;15.30;99.90
5870;DHT22;2961;47.702;9.410;2022-09-03T00:29:45;15.30;99.90
5870;DHT22;2961;47.702;9.410;2022-09-03T00:32:18;15.10;99.90
5870;DHT22;2961;47.702;9.410;2022-09-03T00:34:50;15.00;99.90
5870;DHT22;2961;47.702;9.410;2022-09-03T00:37:18;14.90;99.90
5870;DHT22;2961;47.702;9.410;2022-09-03T00:39:44;14.90;99.90
5870;DHT22;2961;47.702;9.410;2022-09-03T00:42:28;14.80;99.90
5870;DHT22;2961;47.702;9.410;2022-09-03T00:45:06;14.60;99.90
5870;DHT22;2961;47.702;9.410;2022-09-03T00:47:45;14.60;99.90
5870;DHT22;2961;47.702;9.410;2022-09-03T00:50:18;14.60;99.90
5870;DHT22;2961;47.702;9.410;2022-09-03T00:52:56;14.50;99.90
5870;DHT22;2961;47.702;9.410;2022-09-03T00:55:33;14.40;99.90
5870;DHT22;2961;47.702;9.410;2022-09-03T00:58:14;14.30;99.90
5870;DHT22;2961;47.702;9.410;2022-09-03T01:00:45;14.30;99.90
5870;DHT22;2961;47.702;9.410;2022-09-03T01:03:20;14.20;99.90
5870;DHT22;2961;47.702;9.410;2022-09-03T01:06:12;14.20;99.90
5870;DHT22;2961;47.702;9.410;2022-09-03T01:08:52;14.20;99.90
5870;DHT22;2961;47.702;9.410;2022-09-03T01:11:31;14.30;99.90
5870;DHT22;2961;47.702;9.410;2022-09-03T01:14:09;14.40;99.90
5870;DHT22;2961;47.702;9.410;2022-09-03T01:16:43;14.50;99.90
5870;DHT22;2961;47.702;9.410;2022-09-03T01:19:29;14.40;99.90
5870;DHT22;2961;47.702;9.410;2022-09-03T01:22:19;14.40;99.90
5870;DHT22;2961;47.702;9.410;2022-09-03T01:25:16;14.50;99.90
5870;DHT22;2961;47.702;9.410;2022-09-03T01:28:04;14.60;99.90
5870;DHT22;2961;47.702;9.410;2022-09-03T01:30:40;14.70;99.90
5870;DHT22;2961;47.702;9.410;2022-09-03T01:33:18;14.70;99.90
5870;DHT22;2961;47.702;9.410;2022-09-03T01:35:47;14.80;99.90
5870;DHT22;2961;47.702;9.410;2022-09-03T01:38:22;14.80;99.90
5870;DHT22;2961;47.702;9.410;2022-09-03T01:41:00;14.90;99.90
5870;DHT22;2961;47.702;9.410;2022-09-03T01:43:49;15.00;99.90
5870;DHT22;2961;47.702;9.410;2022-09-03T01:46:23;15.00;99.90
5870;DHT22;2961;47.702;9.410;2022-09-03T01:48:55;15.00;99.90
5870;DHT22;2961;47.702;9.410;2022-09-03T01:51:28;15.10;99.90
5870;DHT22;2961;47.702;9.410;2022-09-03T01:54:17;15.10;99.90
5870;DHT22;2961;47.702;9.410;2022-09-03T01:59:54;15.30;99.90
5870;DHT22;2961;47.702;9.410;2022-09-03T02:02:26;15.30;99.90
5870;DHT22;2961;47.702;9.410;2022-09-03T02:04:59;15.40;99.90
5870;DHT22;2961;47.702;9.410;2022-09-03T02:07:30;15.40;99.90
5870;DHT22;2961;47.702;9.410;2022-09-03T02:10:00;15.30;99.90
5870;DHT22;2961;47.702;9.410;2022-09-03T02:12:28;15.40;99.90
5870;DHT22;2961;47.702;9.410;2022-09-03T02:15:00;15.40;99.90
5870;DHT22;2961;47.702;9.410;2022-09-03T02:17:29;15.50;99.90
5870;DHT22;2961;47.702;9.410;2022-09-03T02:19:57;15.50;99.90
5870;DHT22;2961;47.702;9.410;2022-09-03T02:22:24;15.50;99.90
5870;DHT22;2961;47.702;9.410;2022-09-03T02:24:52;15.60;99.90
5870;DHT22;2961;47.702;9.410;2022-09-03T02:27:19;15.80;99.90
5870;DHT22;2961;47.702;9.410;2022-09-03T02:29:46;15.80;99.90
5870;DHT22;2961;47.702;9.410;2022-09-03T02:32:14;15.90;99.90
5870;DHT22;2961;47.702;9.410;2022-09-03T02:34:41;15.90;99.90
5870;DHT22;2961;47.702;9.410;2022-09-03T02:37:12;15.90;99.90
5870;DHT22;2961;47.702;9.410;2022-09-03T02:39:39;15.90;99.90
5870;DHT22;2961;47.702;9.410;2022-09-03T02:42:09;15.80;99.90
5870;DHT22;2961;47.702;9.410;2022-09-03T02:44:40;15.70;99.90
5870;DHT22;2961;47.702;9.410;2022-09-03T02:47:08;15.70;99.90
5870;DHT22;2961;47.702;9.410;2022-09-03T02:49:36;15.80;99.90
5870;DHT22;2961;47.702;9.410;2022-09-03T02:52:05;15.70;99.90
5870;DHT22;2961;47.702;9.410;2022-09-03T02:54:34;15.60;99.90
5870;DHT22;2961;47.702;9.410;2022-09-03T02:57:04;15.60;99.90
5870;DHT22;2961;47.702;9.410;2022-09-03T02:59:31;15.60;99.90
5870;DHT22;2961;47.702;9.410;2022-09-03T03:01:58;15.60;99.90
5870;DHT22;2961;47.702;9.410;2022-09-03T03:04:25;15.60;99.90
5870;DHT22;2961;47.702;9.410;2022-09-03T03:06:53;15.60;99.90
5870;DHT22;2961;47.702;9.410;2022-09-03T03:09:20;15.60;99.90
5870;DHT22;2961;47.702;9.410;2022-09-03T03:11:47;15.60;99.90
5870;DHT22;2961;47.702;9.410;2022-09-03T03:14:16;15.50;99.90
5870;DHT22;2961;47.702;9.410;2022-09-03T03:16:43;15.50;99.90
5870;DHT22;2961;47.702;9.410;2022-09-03T03:19:10;15.50;99.90
5870;DHT22;2961;47.702;9.410;2022-09-03T03:21:36;15.50;99.90
5870;DHT22;2961;47.702;9.410;2022-09-03T03:24:05;15.50;99.90
5870;DHT22;2961;47.702;9.410;2022-09-03T03:26:32;15.50;99.90
5870;DHT22;2961;47.702;9.410;2022-09-03T03:29:01;15.50;99.90
5870;DHT22;2961;47.702;9.410;2022-09-03T03:31:29;15.50;99.90
5870;DHT22;2961;47.702;9.410;2022-09-03T03:33:58;15.50;99.90
5870;DHT22;2961;47.702;9.410;2022-09-03T03:36:26;15.40;99.90
5870;DHT22;2961;47.702;9.410;2022-09-03T03:38:54;15.40;99.90
5870;DHT22;2961;47.702;9.410;2022-09-03T03:41:24;15.30;99.90
5870;DHT22;2961;47.702;9.410;2022-09-03T03:43:52;15.30;99.90
5870;DHT22;2961;47.702;9.410;2022-09-03T03:46:19;15.30;99.90
5870;DHT22;2961;47.702;9.410;2022-09-03T03:48:46;15.30;99.90
5870;DHT22;2961;47.702;9.410;2022-09-03T03:51:14;15.30;99.90
5870;DHT22;2961;47.702;9.410;2022-09-03T03:53:41;15.30;99.90
5870;DHT22;2961;47.702;9.410;2022-09-03T03:56:10;15.40;99.90
5870;DHT22;2961;47.702;9.410;2022-09-03T03:58:39;15.40;99.90
5870;DHT22;2961;47.702;9.410;2022-09-03T04:01:08;15.30;99.90
5870;DHT22;2961;47.702;9.410;2022-09-03T04:03:36;15.30;99.90
5870;DHT22;2961;47.702;9.410;2022-09-03T04:06:06;15.30;99.90
5870;DHT22;2961;47.702;9.410;2022-09-03T04:08:34;15.30;99.90
5870;DHT22;2961;47.702;9.410;2022-09-03T04:11:03;15.30;99.90
5870;DHT22;2961;47.702;9.410;2022-09-03T04:13:31;15.40;99.90
5870;DHT22;2961;47.702;9.410;2022-09-03T04:16:04;15.30;99.90
5870;DHT22;2961;47.702;9.410;2022-09-03T04:18:32;15.30;99.90
5870;DHT22;2961;47.702;9.410;2022-09-03T04:21:00;15.40;99.90
5870;DHT22;2961;47.702;9.410;2022-09-03T04:23:29;15.40;99.90
5870;DHT22;2961;47.702;9.410;2022-09-03T04:25:57;15.40;99.90
5870;DHT22;2961;47.702;9.410;2022-09-03T04:28:24;15.50;99.90
5870;DHT22;2961;47.702;9.410;2022-09-03T04:30:51;15.40;99.90
5870;DHT22;2961;47.702;9.410;2022-09-03T04:33:19;15.30;99.90
5870;DHT22;2961;47.702;9.410;2022-09-03T04:35:46;15.30;99.90
5870;DHT22;2961;47.702;9.410;2022-09-03T04:38:13;15.30;99.90
5870;DHT22;2961;47.702;9.410;2022-09-03T04:40:41;15.30;99.90
5870;DHT22;2961;47.702;9.410;2022-09-03T04:43:08;15.30;99.90
5870;DHT22;2961;47.702;9.410;2022-09-03T04:45:35;15.30;99.90
5870;DHT22;2961;47.702;9.410;2022-09-03T04:48:03;15.30;99.90
5870;DHT22;2961;47.702;9.410;2022-09-03T04:50:32;15.30;99.90
5870;DHT22;2961;47.702;9.410;2022-09-03T04:53:01;15.30;99.90
5870;DHT22;2961;47.702;9.410;2022-09-03T04:55:32;15.30;99.90
5870;DHT22;2961;47.702;9.410;2022-09-03T04:57:59;15.30;99.90
5870;DHT22;2961;47.702;9.410;2022-09-03T05:00:27;15.30;99.90
5870;DHT22;2961;47.702;9.410;2022-09-03T05:02:54;15.40;99.90
5870;DHT22;2961;47.702;9.410;2022-09-03T05:05:20;15.40;99.90
5870;DHT22;2961;47.702;9.410;2022-09-03T05:07:49;15.40;99.90
5870;DHT22;2961;47.702;9.410;2022-09-03T05:10:16;15.30;99.90
5870;DHT22;2961;47.702;9.410;2022-09-03T05:12:45;15.30;99.90
5870;DHT22;2961;47.702;9.410;2022-09-03T05:15:12;15.30;99.90
5870;DHT22;2961;47.702;9.410;2022-09-03T05:17:39;15.40;99.90
5870;DHT22;2961;47.702;9.410;2022-09-03T05:20:06;15.40;99.90
5870;DHT22;2961;47.702;9.410;2022-09-03T05:22:34;15.40;99.90
5870;DHT22;2961;47.702;9.410;2022-09-03T05:25:03;15.40;99.90
5870;DHT22;2961;47.702;9.410;2022-09-03T05:27:30;15.50;99.90
5870;DHT22;2961;47.702;9.410;2022-09-03T05:29:57;15.50;99.90
5870;DHT22;2961;47.702;9.410;2022-09-03T05:32:24;15.50;99.90
5870;DHT22;2961;47.702;9.410;2022-09-03T05:34:53;15.40;99.90
5870;DHT22;2961;47.702;9.410;2022-09-03T05:37:20;15.50;99.90
5870;DHT22;2961;47.702;9.410;2022-09-03T05:39:48;15.60;99.90
5870;DHT22;2961;47.702;9.410;2022-09-03T05:42:16;15.60;99.90
5870;DHT22;2961;47.702;9.410;2022-09-03T05:44:43;15.60;99.90
5870;DHT22;2961;47.702;9.410;2022-09-03T05:47:09;15.70;99.90
5870;DHT22;2961;47.702;9.410;2022-09-03T05:49:36;15.70;99.90
5870;DHT22;2961;47.702;9.410;2022-09-03T05:52:04;15.70;99.90
5870;DHT22;2961;47.702;9.410;2022-09-03T05:54:31;15.70;99.90
5870;DHT22;2961;47.702;9.410;2022-09-03T05:56:58;15.80;99.90
5870;DHT22;2961;47.702;9.410;2022-09-03T05:59:26;15.80;99.90
5870;DHT22;2961;47.702;9.410;2022-09-03T06:01:53;15.90;99.90
5870;DHT22;2961;47.702;9.410;2022-09-03T06:04:20;15.90;99.90
5870;DHT22;2961;47.702;9.410;2022-09-03T06:06:47;16.00;99.90
5870;DHT22;2961;47.702;9.410;2022-09-03T06:09:16;16.10;99.90
5870;DHT22;2961;47.702;9.410;2022-09-03T06:11:44;16.20;99.90
5870;DHT22;2961;47.702;9.410;2022-09-03T06:14:13;16.20;99.90
5870;DHT22;2961;47.702;9.410;2022-09-03T06:16:55;16.40;99.90
5870;DHT22;2961;47.702;9.410;2022-09-03T06:19:22;16.50;99.90
5870;DHT22;2961;47.702;9.410;2022-09-03T06:21:48;16.60;99.90
5870;DHT22;2961;47.702;9.410;2022-09-03T06:24:17;16.70;99.90
5870;DHT22;2961;47.702;9.410;2022-09-03T06:26:44;16.80;99.90
5870;DHT22;2961;47.702;9.410;2022-09-03T06:29:12;16.90;99.90
5870;DHT22;2961;47.702;9.410;2022-09-03T06:31:39;17.00;99.90
5870;DHT22;2961;47.702;9.410;2022-09-03T06:34:07;17.00;99.90
5870;DHT22;2961;47.702;9.410;2022-09-03T06:36:34;17.10;99.90
5870;DHT22;2961;47.702;9.410;2022-09-03T06:39:01;17.10;99.90
5870;DHT22;2961;47.702;9.410;2022-09-03T06:41:29;17.50;99.90
5870;DHT22;2961;47.702;9.410;2022-09-03T06:44:00;17.60;99.90
5870;DHT22;2961;47.702;9.410;2022-09-03T06:46:28;17.80;99.90
5870;DHT22;2961;47.702;9.410;2022-09-03T06:48:55;17.90;99.90
5870;DHT22;2961;47.702;9.410;2022-09-03T06:51:25;18.00;99.90
5870;DHT22;2961;47.702;9.410;2022-09-03T06:53:54;18.00;99.90
5870;DHT22;2961;47.702;9.410;2022-09-03T06:56:24;17.90;99.90
5870;DHT22;2961;47.702;9.410;2022-09-03T06:58:52;17.80;99.90
5870;DHT22;2961;47.702;9.410;2022-09-03T07:01:21;17.70;99.90
5870;DHT22;2961;47.702;9.410;2022-09-03T07:03:52;17.50;99.90
5870;DHT22;2961;47.702;9.410;2022-09-03T07:06:22;17.40;99.90
5870;DHT22;2961;47.702;9.410;2022-09-03T07:08:51;17.40;99.90
5870;DHT22;2961;47.702;9.410;2022-09-03T07:11:20;17.30;99.90
5870;DHT22;2961;47.702;9.410;2022-09-03T07:13:48;17.30;99.90
5870;DHT22;2961;47.702;9.410;2022-09-03T07:16:17;17.20;99.90
5870;DHT22;2961;47.702;9.410;2022-09-03T07:18:45;17.20;99.90
5870;DHT22;2961;47.702;9.410;2022-09-03T07:21:13;17.30;99.90
5870;DHT22;2961;47.702;9.410;2022-09-03T07:23:41;17.50;99.90
5870;DHT22;2961;47.702;9.410;2022-09-03T07:26:12;17.60;99.90
5870;DHT22;2961;47.702;9.410;2022-09-03T07:28:41;17.60;99.90
5870;DHT22;2961;47.702;9.410;2022-09-03T07:31:10;17.70;99.90
5870;DHT22;2961;47.702;9.410;2022-09-03T07:33:37;17.70;99.90
5870;DHT22;2961;47.702;9.410;2022-09-03T07:36:06;17.70;99.90
5870;DHT22;2961;47.702;9.410;2022-09-03T07:38:34;17.80;99.90
5870;DHT22;2961;47.702;9.410;2022-09-03T07:41:03;17.90;99.90
5870;DHT22;2961;47.702;9.410;2022-09-03T07:43:36;18.00;99.90
5870;DHT22;2961;47.702;9.410;2022-09-03T07:46:04;18.00;99.90
5870;DHT22;2961;47.702;9.410;2022-09-03T07:48:31;18.10;99.90
5870;DHT22;2961;47.702;9.410;2022-09-03T07:50:59;18.00;99.90
5870;DHT22;2961;47.702;9.410;2022-09-03T07:53:26;18.20;99.90
5870;DHT22;2961;47.702;9.410;2022-09-03T07:55:54;18.10;99.90
5870;DHT22;2961;47.702;9.410;2022-09-03T07:58:27;18.10;99.90
5870;DHT22;2961;47.702;9.410;2022-09-03T08:00:56;18.40;99.90
5870;DHT22;2961;47.702;9.410;2022-09-03T08:03:23;18.80;99.90
5870;DHT22;2961;47.702;9.410;2022-09-03T08:05:49;19.00;99.90
5870;DHT22;2961;47.702;9.410;2022-09-03T08:08:16;19.60;99.90
5870;DHT22;2961;47.702;9.410;2022-09-03T08:10:43;20.50;99.90
5870;DHT22;2961;47.702;9.410;2022-09-03T08:13:10;21.10;99.90
5870;DHT22;2961;47.702;9.410;2022-09-03T08:15:37;21.60;99.90
5870;DHT22;2961;47.702;9.410;2022-09-03T08:18:08;21.50;99.90
5870;DHT22;2961;47.702;9.410;2022-09-03T08:20:36;21.20;99.90
5870;DHT22;2961;47.702;9.410;2022-09-03T08:23:03;21.00;99.90
5870;DHT22;2961;47.702;9.410;2022-09-03T08:25:30;20.60;99.90
5870;DHT22;2961;47.702;9.410;2022-09-03T08:27:58;20.30;99.90
5870;DHT22;2961;47.702;9.410;2022-09-03T08:30:25;20.00;99.90
5870;DHT22;2961;47.702;9.410;2022-09-03T08:32:52;19.90;99.90
5870;DHT22;2961;47.702;9.410;2022-09-03T08:35:21;19.70;99.90
5870;DHT22;2961;47.702;9.410;2022-09-03T08:37:48;19.40;99.90
5870;DHT22;2961;47.702;9.410;2022-09-03T08:40:19;19.30;99.90
5870;DHT22;2961;47.702;9.410;2022-09-03T08:42:56;19.20;99.90
5870;DHT22;2961;47.702;9.410;2022-09-03T08:45:25;19.10;99.90
5870;DHT22;2961;47.702;9.410;2022-09-03T08:48:00;19.00;99.90
5870;DHT22;2961;47.702;9.410;2022-09-03T08:50:32;19.00;99.90
5870;DHT22;2961;47.702;9.410;2022-09-03T08:53:06;19.10;99.90
5870;DHT22;2961;47.702;9.410;2022-09-03T08:55:35;19.10;99.90
5870;DHT22;2961;47.702;9.410;2022-09-03T08:58:10;19.20;99.90
5870;DHT22;2961;47.702;9.410;2022-09-03T09:00:45;19.20;99.90
5870;DHT22;2961;47.702;9.410;2022-09-03T09:03:41;19.30;99.90
5870;DHT22;2961;47.702;9.410;2022-09-03T09:06:20;19.30;99.90
5870;DHT22;2961;47.702;9.410;2022-09-03T09:09:01;19.30;99.90
5870;DHT22;2961;47.702;9.410;2022-09-03T09:11:40;19.50;99.90
5870;DHT22;2961;47.702;9.410;2022-09-03T09:14:17;19.50;99.90
5870;DHT22;2961;47.702;9.410;2022-09-03T09:16:51;19.50;99.90
5870;DHT22;2961;47.702;9.410;2022-09-03T09:19:36;19.60;99.90
5870;DHT22;2961;47.702;9.410;2022-09-03T09:22:09;19.60;99.90
5870;DHT22;2961;47.702;9.410;2022-09-03T09:24:39;19.70;99.90
5870;DHT22;2961;47.702;9.410;2022-09-03T09:27:07;19.70;99.90
5870;DHT22;2961;47.702;9.410;2022-09-03T09:29:38;19.80;99.90
5870;DHT22;2961;47.702;9.410;2022-09-03T09:32:08;19.90;99.90
5870;DHT22;2961;47.702;9.410;2022-09-03T09:34:37;20.00;99.90
5870;DHT22;2961;47.702;9.410;2022-09-03T09:37:09;20.10;99.90
5870;DHT22;2961;47.702;9.410;2022-09-03T09:39:38;20.20;99.90
5870;DHT22;2961;47.702;9.410;2022-09-03T09:42:08;20.30;99.90
5870;DHT22;2961;47.702;9.410;2022-09-03T09:44:37;20.40;99.90
5870;DHT22;2961;47.702;9.410;2022-09-03T09:47:06;20.40;99.90
5870;DHT22;2961;47.702;9.410;2022-09-03T09:49:35;20.50;99.90
5870;DHT22;2961;47.702;9.410;2022-09-03T09:52:10;20.60;99.90
5870;DHT22;2961;47.702;9.410;2022-09-03T09:55:24;20.70;99.90
5870;DHT22;2961;47.702;9.410;2022-09-03T09:57:52;20.90;99.90
5870;DHT22;2961;47.702;9.410;2022-09-03T10:00:19;21.10;99.90
5870;DHT22;2961;47.702;9.410;2022-09-03T10:02:47;21.20;99.90
5870;DHT22;2961;47.702;9.410;2022-09-03T10:05:20;21.20;99.90
5870;DHT22;2961;47.702;9.410;2022-09-03T10:07:54;21.30;99.90
5870;DHT22;2961;47.702;9.410;2022-09-03T10:10:21;21.40;99.90
5870;DHT22;2961;47.702;9.410;2022-09-03T10:12:56;21.50;99.90
5870;DHT22;2961;47.702;9.410;2022-09-03T10:15:30;21.50;99.90
5870;DHT22;2961;47.702;9.410;2022-09-03T10:18:06;21.50;99.90
5870;DHT22;2961;47.702;9.410;2022-09-03T10:20:38;21.70;99.90
5870;DHT22;2961;47.702;9.410;2022-09-03T10:23:15;21.80;99.90
5870;DHT22;2961;47.702;9.410;2022-09-03T10:25:52;22.10;99.90
5870;DHT22;2961;47.702;9.410;2022-09-03T10:28:24;22.20;99.90
5870;DHT22;2961;47.702;9.410;2022-09-03T10:31:08;22.40;99.90
5870;DHT22;2961;47.702;9.410;2022-09-03T10:33:43;22.70;99.90
5870;DHT22;2961;47.702;9.410;2022-09-03T10:36:17;22.90;99.90
5870;DHT22;2961;47.702;9.410;2022-09-03T10:38:50;23.00;99.90
5870;DHT22;2961;47.702;9.410;2022-09-03T10:41:29;23.00;99.90
5870;DHT22;2961;47.702;9.410;2022-09-03T10:44:30;22.90;99.90
5870;DHT22;2961;47.702;9.410;2022-09-03T10:47:07;22.50;99.90
5870;DHT22;2961;47.702;9.410;2022-09-03T10:49:48;21.90;99.90
5870;DHT22;2961;47.702;9.410;2022-09-03T10:52:22;21.30;99.90
5870;DHT22;2961;47.702;9.410;2022-09-03T10:55:11;20.50;99.90
5870;DHT22;2961;47.702;9.410;2022-09-03T10:57:47;19.90;99.90
5870;DHT22;2961;47.702;9.410;2022-09-03T11:00:16;19.20;99.90
5870;DHT22;2961;47.702;9.410;2022-09-03T11:03:02;18.80;99.90
5870;DHT22;2961;47.702;9.410;2022-09-03T11:05:33;18.50;99.90
5870;DHT22;2961;47.702;9.410;2022-09-03T11:08:06;18.40;99.90
5870;DHT22;2961;47.702;9.410;2022-09-03T11:10:39;18.20;99.90
5870;DHT22;2961;47.702;9.410;2022-09-03T11:13:11;18.20;99.90
5870;DHT22;2961;47.702;9.410;2022-09-03T11:15:44;18.20;99.90
5870;DHT22;2961;47.702;9.410;2022-09-03T11:18:17;18.30;99.90
5870;DHT22;2961;47.702;9.410;2022-09-03T11:20:47;18.50;99.90
5870;DHT22;2961;47.702;9.410;2022-09-03T11:23:15;18.70;99.90
5870;DHT22;2961;47.702;9.410;2022-09-03T11:25:48;19.00;99.90
5870;DHT22;2961;47.702;9.410;2022-09-03T11:28:24;19.20;99.90
5870;DHT22;2961;47.702;9.410;2022-09-03T11:31:05;19.50;99.90
5870;DHT22;2961;47.702;9.410;2022-09-03T11:33:40;19.80;99.90
5870;DHT22;2961;47.702;9.410;2022-09-03T11:36:07;20.20;99.90
5870;DHT22;2961;47.702;9.410;2022-09-03T11:38:35;20.40;99.90
5870;DHT22;2961;47.702;9.410;2022-09-03T11:41:11;20.60;99.90
5870;DHT22;2961;47.702;9.410;2022-09-03T11:43:39;20.70;99.90
5870;DHT22;2961;47.702;9.410;2022-09-03T11:46:12;20.90;99.90
5870;DHT22;2961;47.702;9.410;2022-09-03T11:48:41;21.00;99.90
5870;DHT22;2961;47.702;9.410;2022-09-03T11:51:18;21.10;99.90
5870;DHT22;2961;47.702;9.410;2022-09-03T11:53:56;21.10;99.90
5870;DHT22;2961;47.702;9.410;2022-09-03T11:56:24;21.10;99.90
5870;DHT22;2961;47.702;9.410;2022-09-03T11:59:05;21.20;99.90
5870;DHT22;2961;47.702;9.410;2022-09-03T12:01:45;21.20;99.90
5870;DHT22;2961;47.702;9.410;2022-09-03T12:04:14;21.30;99.90
5870;DHT22;2961;47.702;9.410;2022-09-03T12:06:56;21.40;99.90
5870;DHT22;2961;47.702;9.410;2022-09-03T12:09:42;21.50;99.90
5870;DHT22;2961;47.702;9.410;2022-09-03T12:12:26;21.30;99.90
5870;DHT22;2961;47.702;9.410;2022-09-03T12:15:09;21.10;99.90
5870;DHT22;2961;47.702;9.410;2022-09-03T12:17:47;20.80;99.90
5870;DHT22;2961;47.702;9.410;2022-09-03T12:20:37;20.70;99.90
5870;DHT22;2961;47.702;9.410;2022-09-03T12:23:05;20.90;99.90
5870;DHT22;2961;47.702;9.410;2022-09-03T12:25:32;20.90;99.90
5870;DHT22;2961;47.702;9.410;2022-09-03T12:28:00;21.00;99.90
5870;DHT22;2961;47.702;9.410;2022-09-03T12:30:28;20.90;99.90
5870;DHT22;2961;47.702;9.410;2022-09-03T12:33:04;20.70;99.90
5870;DHT22;2961;47.702;9.410;2022-09-03T12:35:32;20.50;99.90
5870;DHT22;2961;47.702;9.410;2022-09-03T12:37:59;20.40;99.90
5870;DHT22;2961;47.702;9.410;2022-09-03T12:40:28;20.40;99.90
5870;DHT22;2961;47.702;9.410;2022-09-03T12:42:59;20.40;99.90
5870;DHT22;2961;47.702;9.410;2022-09-03T12:45:42;20.40;99.90
5870;DHT22;2961;47.702;9.410;2022-09-03T12:48:13;20.30;99.90
5870;DHT22;2961;47.702;9.410;2022-09-03T12:50:41;20.20;99.90
5870;DHT22;2961;47.702;9.410;2022-09-03T12:53:09;20.30;99.90
5870;DHT22;2961;47.702;9.410;2022-09-03T12:55:42;20.40;99.90
5870;DHT22;2961;47.702;9.410;2022-09-03T12:58:14;20.70;99.90
5870;DHT22;2961;47.702;9.410;2022-09-03T13:00:45;21.20;99.90
5870;DHT22;2961;47.702;9.410;2022-09-03T13:03:18;21.40;99.90
5870;DHT22;2961;47.702;9.410;2022-09-03T13:05:50;21.30;99.90
5870;DHT22;2961;47.702;9.410;2022-09-03T13:08:21;21.20;99.90
5870;DHT22;2961;47.702;9.410;2022-09-03T13:10:51;21.10;99.90
5870;DHT22;2961;47.702;9.410;2022-09-03T13:13:21;21.00;99.90
5870;DHT22;2961;47.702;9.410;2022-09-03T13:18:48;21.00;99.90
5870;DHT22;2961;47.702;9.410;2022-09-03T13:21:23;21.10;99.90
5870;DHT22;2961;47.702;9.410;2022-09-03T13:24:08;21.10;99.90
5870;DHT22;2961;47.702;9.410;2022-09-03T13:26:48;21.20;99.90
5870;DHT22;2961;47.702;9.410;2022-09-03T13:29:26;21.40;99.90
5870;DHT22;2961;47.702;9.410;2022-09-03T13:32:02;21.60;99.90
5870;DHT22;2961;47.702;9.410;2022-09-03T13:34:36;21.60;99.90
5870;DHT22;2961;47.702;9.410;2022-09-03T13:37:19;21.70;99.90
5870;DHT22;2961;47.702;9.410;2022-09-03T13:39:52;21.70;99.90
5870;DHT22;2961;47.702;9.410;2022-09-03T13:42:21;21.90;99.90
5870;DHT22;2961;47.702;9.410;2022-09-03T13:44:54;21.80;99.90
5870;DHT22;2961;47.702;9.410;2022-09-03T13:47:28;21.80;99.90
5870;DHT22;2961;47.702;9.410;2022-09-03T13:50:02;21.70;99.90
5870;DHT22;2961;47.702;9.410;2022-09-03T13:52:52;21.70;99.90
5870;DHT22;2961;47.702;9.410;2022-09-03T13:55:27;21.60;99.90
5870;DHT22;2961;47.702;9.410;2022-09-03T13:58:01;21.60;99.90
5870;DHT22;2961;47.702;9.410;2022-09-03T14:00:33;21.60;99.90
5870;DHT22;2961;47.702;9.410;2022-09-03T14:03:07;21.60;99.90
5870;DHT22;2961;47.702;9.410;2022-09-03T14:05:49;21.60;99.90
5870;DHT22;2961;47.702;9.410;2022-09-03T14:08:24;21.50;99.90
5870;DHT22;2961;47.702;9.410;2022-09-03T14:11:05;21.40;99.90
5870;DHT22;2961;47.702;9.410;2022-09-03T14:13:46;21.40;99.90
5870;DHT22;2961;47.702;9.410;2022-09-03T14:16:23;21.50;99.90
5870;DHT22;2961;47.702;9.410;2022-09-03T14:18:53;21.50;99.90
5870;DHT22;2961;47.702;9.410;2022-09-03T14:21:26;21.50;99.90
5870;DHT22;2961;47.702;9.410;2022-09-03T14:24:03;21.50;99.90
5870;DHT22;2961;47.702;9.410;2022-09-03T14:26:34;21.50;99.90
5870;DHT22;2961;47.702;9.410;2022-09-03T14:29:03;21.40;99.90
5870;DHT22;2961;47.702;9.410;2022-09-03T14:31:46;21.40;99.90
5870;DHT22;2961;47.702;9.410;2022-09-03T14:34:25;21.30;99.90
5870;DHT22;2961;47.702;9.410;2022-09-03T14:37:03;21.30;99.90
5870;DHT22;2961;47.702;9.410;2022-09-03T14:39:33;21.30;99.90
5870;DHT22;2961;47.702;9.410;2022-09-03T14:42:30;21.30;99.90
5870;DHT22;2961;47.702;9.410;2022-09-03T14:45:36;21.40;99.90
5870;DHT22;2961;47.702;9.410;2022-09-03T14:48:35;21.50;99.90
5870;DHT22;2961;47.702;9.410;2022-09-03T14:51:18;21.60;99.90
5870;DHT22;2961;47.702;9.410;2022-09-03T14:54:08;21.60;99.90
5870;DHT22;2961;47.702;9.410;2022-09-03T14:56:46;21.60;99.90
5870;DHT22;2961;47.702;9.410;2022-09-03T14:59:33;21.60;99.90
5870;DHT22;2961;47.702;9.410;2022-09-03T15:02:29;21.60;99.90
5870;DHT22;2961;47.702;9.410;2022-09-03T15:05:09;21.60;99.90
5870;DHT22;2961;47.702;9.410;2022-09-03T15:07:42;21.60;99.90
5870;DHT22;2961;47.702;9.410;2022-09-03T15:10:20;21.60;99.90
5870;DHT22;2961;47.702;9.410;2022-09-03T15:12:51;21.60;99.90
5870;DHT22;2961;47.702;9.410;2022-09-03T15:15:21;21.60;99.90
5870;DHT22;2961;47.702;9.410;2022-09-03T15:18:02;21.60;99.90
5870;DHT22;2961;47.702;9.410;2022-09-03T15:20:47;21.60;99.90
5870;DHT22;2961;47.702;9.410;2022-09-03T15:23:37;21.70;99.90
5870;DHT22;2961;47.702;9.410;2022-09-03T15:26:42;21.70;99.90
5870;DHT22;2961;47.702;9.410;2022-09-03T15:29:36;21.70;99.90
5870;DHT22;2961;47.702;9.410;2022-09-03T15:32:11;21.70;99.90
5870;DHT22;2961;47.702;9.410;2022-09-03T15:35:08;21.70;99.90
5870;DHT22;2961;47.702;9.410;2022-09-03T15:37:41;21.70;99.90
5870;DHT22;2961;47.702;9.410;2022-09-03T15:40:26;21.70;99.90
5870;DHT22;2961;47.702;9.410;2022-09-03T15:42:59;21.70;99.90
5870;DHT22;2961;47.702;9.410;2022-09-03T15:45:37;21.60;99.90
5870;DHT22;2961;47.702;9.410;2022-09-03T15:48:16;21.60;99.90
5870;DHT22;2961;47.702;9.410;2022-09-03T15:50:52;21.50;99.90
5870;DHT22;2961;47.702;9.410;2022-09-03T15:53:28;21.50;99.90
5870;DHT22;2961;47.702;9.410;2022-09-03T15:56:06;21.50;99.90
5870;DHT22;2961;47.702;9.410;2022-09-03T15:58:41;21.50;99.90
5870;DHT22;2961;47.702;9.410;2022-09-03T16:01:21;21.50;99.90
5870;DHT22;2961;47.702;9.410;2022-09-03T16:03:57;21.40;99.90
5870;DHT22;2961;47.702;9.410;2022-09-03T16:06:32;21.40;99.90
5870;DHT22;2961;47.702;9.410;2022-09-03T16:09:08;21.40;99.90
5870;DHT22;2961;47.702;9.410;2022-09-03T16:11:51;21.30;99.90
5870;DHT22;2961;47.702;9.410;2022-09-03T16:14:25;21.40;99.90
5870;DHT22;2961;47.702;9.410;2022-09-03T16:17:00;21.30;99.90
5870;DHT22;2961;47.702;9.410;2022-09-03T16:19:33;21.30;99.90
5870;DHT22;2961;47.702;9.410;2022-09-03T16:22:05;21.20;99.90
5870;DHT22;2961;47.702;9.410;2022-09-03T16:24:37;21.20;99.90
5870;DHT22;2961;47.702;9.410;2022-09-03T16:27:13;21.10;99.90
5870;DHT22;2961;47.702;9.410;2022-09-03T16:29:55;21.00;99.90
5870;DHT22;2961;47.702;9.410;2022-09-03T16:32:29;21.00;99.90
5870;DHT22;2961;47.702;9.410;2022-09-03T16:35:08;20.90;99.90
5870;DHT22;2961;47.702;9.410;2022-09-03T16:37:50;20.80;99.90
5870;DHT22;2961;47.702;9.410;2022-09-03T16:40:24;20.80;99.90
5870;DHT22;2961;47.702;9.410;2022-09-03T16:43:01;20.70;99.90
5870;DHT22;2961;47.702;9.410;2022-09-03T16:45:37;20.60;99.90